ETEB 192356Z AUTO 06005KT 9999 CLR 12/01 A3038 RMK AO2 SLP293 T01170013 10190 20117 51003 $ EDMA 200020Z AUTO VRB02KT 9999 // NCD 07/00 Q1027 ETIK 192356Z AUTO 00000KT 9999 CLR 05/03 A3039 RMK AO2 SLP292 T00470027 10178 20047 51004 $ EDDT 200020Z VRB02KT CAVOK 09/M01 Q1032 LSZB 200020Z AUTO VRB03KT 9999 NCD 06/04 Q1026 LIPB 192050Z VRB03KT CAVOK 16/04 Q1028 RMK MON INVIS EDDW 200020Z 10005KT CAVOK 12/01 Q1032 LFMD 200030Z AUTO VRB05KT CAVOK 10/05 Q1025 EDLW 200020Z AUTO 06004KT 9999 // NCD 11/04 Q1029 EDDC 200020Z VRB02KT CAVOK 10/00 Q1031 EDDL 200020Z VRB01KT CAVOK 09/05 Q1028 NOSIG EDDE 200020Z 19003KT CAVOK 10/01 Q1030 LIRQ 200020Z VRB02KT CAVOK 12/05 Q1027 EDDF 200020Z 02007KT CAVOK 15/04 Q1028 NOSIG EDNY 200020Z AUTO 04005KT 9999 // NCD 13/01 Q1026 ETHF 200020Z AUTO 32005KT 7000 // ////// 09/03 Q1030 /// LIMJ 200020Z 02010KT 350V050 CAVOK 18/00 Q1026 ETIC 192356Z AUTO 00000KT 9999 CLR 05/00 A3039 RMK AO2 SLP293 T00541002 10176 20054 50001 $ LOWG 200020Z AUTO VRB01KT 9999 NSC 07/04 Q1029 EDDH 200020Z 05003KT CAVOK 07/03 Q1033 NOSIG EDDV 200020Z 08006KT CAVOK 09/01 Q1032 ETIH 192356Z AUTO 00000KT 9999 CLR 05/02 A3040 RMK AO2 SLP295 T00510019 10188 20051 50003 $ ETSI 200020Z AUTO 04003KT 8000 // ////// 07/02 Q1028 /// LOWI 200020Z AUTO VRB02KT 9999 NSC 07/02 Q1029 LOWK 200020Z AUTO VRB02KT 9999 NSC 06/03 Q1030 EDDK 200020Z 10003KT 050V200 CAVOK 15/04 Q1028 NOSIG EDDP 200020Z 05010KT CAVOK 10/01 Q1030 NOSIG LOWL 200020Z AUTO 08006KT 9999 NSC 10/00 Q1029 LSZA 200020Z AUTO VRB02KT CAVOK 09/07 Q1029 LIML 200020Z AUTO 35002KT 9999 NCD 11/09 Q1028 LFML 200030Z AUTO VRB02KT CAVOK 16/04 Q1025 NOSIG LFMT 200030Z AUTO 34004KT CAVOK 11/06 Q1025 NOSIG EDDM 200020Z 04006KT 010V070 CAVOK 10/01 Q1027 NOSIG EDDG 200020Z 05003KT CAVOK 13/04 Q1030 NOSIG ETSN 200020Z 01003KT 9999 09/01 Q1028 BLU+ ETHN 200020Z 09009KT 9999 12/02 Q1028 BLU+ LFMN 200030Z 33008KT CAVOK 14/04 Q1025 NOSIG EDDN 200020Z 10007KT CAVOK 11/01 Q1028 EDMO 200020Z AUTO 08002KT 9999 // NCD 06/01 Q1027 EDLP 200020Z 13006KT CAVOK 13/M00 Q1029 LIPR 200020Z AUTO 20004KT 9999 NCD 06/03 Q1027 EDDR 200020Z 03008KT CAVOK 13/01 Q1027 LOWS 200020Z AUTO VRB01KT 9999 NSC 08/01 Q1027 LSGS 200020Z AUTO 11003KT 9999 BKN090 13/03 Q1027 EDDS 200020Z 27003KT CAVOK 07/01 Q1027 LFTH 200030Z AUTO 02005KT 360V060 CAVOK 13/05 Q1024 NOSIG LIMF 200020Z 28002KT CAVOK 09/04 Q1028 LIPZ 200020Z 23004KT CAVOK 12/07 Q1027 NOSIG LIPX 200020Z VRB02KT CAVOK 11/06 Q1028 LOWW 200020Z 33003KT CAVOK 09/00 Q1029 NOSIG LSZH 192350Z VRB01KT CAVOK 08/05 Q1027 NOSIG

METAR Messwerte

Klicken Sie auf einen Ort, um die 36h-Historie abzurufen

Ort
m ü. NN
Zeit Temperatur Taupunkt Rel.
Luftfeuchte
Luftdruck:
Altimeter
NN
Station
Wind in Beaufort
(Knoten)
Sichtweite
(Meter)
Wolken
(Meter über Grund)
Wettererscheinung
Ansbach
Sa 20.04. 01:5612147 %1029
1029
1029
ONO 2 (5)>= 10000  
Augsburg
Sa 20.04. 02:207061 %1027
1027
1027
Uml 1 (2)>= 10000  
Bad Windsheim / Illesheim
Sa 20.04. 01:565387 %1029
1029
1029
Windstill>= 10000  
Berlin-Tegel
Sa 20.04. 02:209-149 %1032
1032
1032
Uml 1 (2)>= 10000Nicht signifikant 
Bern/Belp
Sa 20.04. 02:206487 %1026
1026
1026
Uml 2 (3)>= 10000  
Bozen
Fr 19.04. 22:5016445 %1028
1028
1028
Uml 2 (3)>= 10000Nicht signifikant 
Bremen
Sa 20.04. 02:2012147 %1032
1032
1032
O 2 (5)>= 10000Nicht signifikant 
Cannes
Sa 20.04. 02:3010571 %1025
1025
1025
Uml 2 (5)>= 10000Nicht signifikant 
Dortmund/Wickede
Sa 20.04. 02:2011462 %1029
1029
1029
ONO 2 (4)>= 10000  
Dresden-Klotzsche
Sa 20.04. 02:2010050 %1031
1031
1031
Uml 1 (2)>= 10000Nicht signifikant 
Düsseldorf
Sa 20.04. 02:209576 %1028
1028
1028
Uml 1 (1)>= 10000Nicht signifikant 
Erfurt-Bindersleben
Sa 20.04. 02:2010153 %1030
1030
1030
S 2 (3)>= 10000Nicht signifikant 
Florenz
Sa 20.04. 02:2012562 %1027
1027
1027
Uml 1 (2)>= 10000Nicht signifikant 
Frankfurt
Sa 20.04. 02:2015448 %1028
1028
1028
NNO 3 (7)>= 10000Nicht signifikant 
Friedrichshafen
Sa 20.04. 02:2013144 %1026
1026
1026
NO 2 (5)>= 10000  
Fritzlar
Sa 20.04. 02:209366 %1030
1030
1030
NW 2 (5)7000  
Genua
Sa 20.04. 02:2018030 %1026
1026
1026
NNO 3 (10)
N - NO
>= 10000Nicht signifikant 
Grafenwöhr
Sa 20.04. 01:565070 %1029
1029
1029
Windstill>= 10000  
Graz-Thalerhof
Sa 20.04. 02:207481 %1029
1029
1029
Uml 1 (1)>= 10000Nicht signifikant 
Hamburg-Fuhlsbüttel
Sa 20.04. 02:207376 %1033
1033
1033
NO 2 (3)>= 10000Nicht signifikant 
Hannover
Sa 20.04. 02:209157 %1032
1032
1032
O 2 (6)>= 10000Nicht signifikant 
Hohenfels
Sa 20.04. 01:565281 %1029
1029
1029
Windstill>= 10000  
Ingolstadt
Sa 20.04. 02:207270 %1028
1028
1028
NO 2 (3)8000  
Innsbruck
Sa 20.04. 02:207270 %1029
1029
1029
Uml 1 (2)>= 10000Nicht signifikant 
Klagenfurt
Sa 20.04. 02:206381 %1030
1030
1030
Uml 1 (2)>= 10000Nicht signifikant 
Köln/Bonn
Sa 20.04. 02:2015448 %1028
1028
1028
O 2 (3)
NO - SSW
>= 10000Nicht signifikant 
Leipzig-Schkeuditz
Sa 20.04. 02:2010153 %1030
1030
1030
NO 3 (10)>= 10000Nicht signifikant 
Linz/Hörsching
Sa 20.04. 02:2010050 %1029
1029
1029
O 2 (6)>= 10000Nicht signifikant 
Lugano
Sa 20.04. 02:209787 %1029
1029
1029
Uml 1 (2)>= 10000Nicht signifikant 
Mailand
Sa 20.04. 02:2011987 %1028
1028
1028
N 1 (2)>= 10000  
Marseille/Marignane
Sa 20.04. 02:3016445 %1025
1025
1025
Uml 1 (2)>= 10000Nicht signifikant 
Montpellier
Sa 20.04. 02:3011671 %1025
1025
1025
NNW 2 (4)>= 10000Nicht signifikant 
München
Sa 20.04. 02:2010153 %1027
1027
1027
NO 2 (6)
N - ONO
>= 10000Nicht signifikant 
Münster/Osnabrück
Sa 20.04. 02:2013454 %1030
1030
1030
NO 2 (3)>= 10000Nicht signifikant 
Neuburg/Donau
Sa 20.04. 02:209157 %1028
1028
1028
N 2 (3)>= 10000  
Niederstetten
Sa 20.04. 02:2012250 %1028
1028
1028
O 3 (9)>= 10000  
Nizza
Sa 20.04. 02:3014451 %1025
1025
1025
NNW 3 (8)>= 10000Nicht signifikant 
Nürnberg
Sa 20.04. 02:2011150 %1028
1028
1028
O 3 (7)>= 10000Nicht signifikant 
Oberpfaffenhofen
Sa 20.04. 02:206170 %1027
1027
1027
O 1 (2)>= 10000  
Paderborn/Lippstadt
Sa 20.04. 02:2013-041 %1029
1029
1029
SO 2 (6)>= 10000Nicht signifikant 
Rimini
Sa 20.04. 02:206381 %1027
1027
1027
SSW 2 (4)>= 10000  
Saarbrücken/Ensheim
Sa 20.04. 02:2013144 %1027
1027
1027
NNO 3 (8)>= 10000Nicht signifikant 
Salzburg
Sa 20.04. 02:208161 %1027
1027
1027
Uml 1 (1)>= 10000Nicht signifikant 
Sion
Sa 20.04. 02:2013351 %1027
1027
1027
OSO 2 (3)>= 10000Stark bewölkt (2700) 
Stuttgart
Sa 20.04. 02:207166 %1027
1027
1027
W 2 (3)>= 10000Nicht signifikant 
Toulon
Sa 20.04. 02:3013558 %1024
1024
1024
NNO 2 (5)
N - ONO
>= 10000Nicht signifikant 
Turin
Sa 20.04. 02:209471 %1028
1028
1028
W 1 (2)>= 10000Nicht signifikant 
Venedig
Sa 20.04. 02:2012771 %1027
1027
1027
SW 2 (4)>= 10000Nicht signifikant 
Verona/Villafranca
Sa 20.04. 02:2011671 %1028
1028
1028
Uml 1 (2)>= 10000Nicht signifikant 
Wien/Schwechat
Sa 20.04. 02:209053 %1029
1029
1029
NNW 2 (3)>= 10000Nicht signifikant 
Zürich-Kloten
Sa 20.04. 01:508581 %1027
1027
1027
Uml 1 (1)>= 10000Nicht signifikant 

Altimeter: Einstellung am Altimeter (Höhenmesser), die Höhe 0 muss auf diesen Luftdruckwert zeigen, damit das Gerät die Stationshöhe richtig anzeigt.

NN: Luftdruck reduziert auf "Normal Null", auf Meereshöhe, dieser von der Temperatur abhängige Wert wird bisweilen unkorrekt einfach als "Luftdruck" bezeichnet. Eigentlich nur eine fiktive Größe, die es erlaubt, Stationen auf unterschiedlichen Höhen miteinander zu vergleichen.

Station: Realer Luftdruck an der Station.